createdAt,value
2022-09-09T00:01:40.009Z,16.90
2022-09-09T00:04:34.539Z,16.82
2022-09-09T00:07:42.077Z,16.69
2022-09-09T00:10:31.826Z,16.61
2022-09-09T00:13:37.739Z,16.55
2022-09-09T00:16:17.495Z,16.36
2022-09-09T00:19:29.106Z,16.54
2022-09-09T00:22:18.437Z,16.47
2022-09-09T00:24:56.747Z,16.53
2022-09-09T00:27:51.148Z,16.51
2022-09-09T00:30:40.479Z,16.48
2022-09-09T00:33:39.955Z,16.39
2022-09-09T00:36:26.452Z,16.41
2022-09-09T00:39:06.391Z,16.37
2022-09-09T00:41:59.915Z,16.33
2022-09-09T00:44:54.812Z,16.28
2022-09-09T00:47:54.836Z,16.22
2022-09-09T00:50:45.974Z,16.21
2022-09-09T00:53:32.505Z,16.21
2022-09-09T00:56:46.043Z,16.27
2022-09-09T00:59:44.331Z,16.22
2022-09-09T01:02:36.570Z,16.19
2022-09-09T01:05:32.884Z,16.21
2022-09-09T01:08:24.225Z,16.14
2022-09-09T01:11:05.448Z,16.08
2022-09-09T01:13:58.054Z,16.06
2022-09-09T01:16:48.557Z,16.05
2022-09-09T01:19:54.587Z,16.04
2022-09-09T01:23:11.620Z,15.95
2022-09-09T01:26:29.203Z,16.01
2022-09-09T01:29:17.136Z,16.03
2022-09-09T01:32:25.445Z,15.91
2022-09-09T01:35:17.456Z,15.93
2022-09-09T01:37:53.450Z,15.93
2022-09-09T01:40:31.400Z,15.95
2022-09-09T01:43:10.722Z,15.93
2022-09-09T01:45:55.310Z,15.96
2022-09-09T01:48:39.314Z,15.88
2022-09-09T01:51:18.463Z,15.81
2022-09-09T01:54:00.562Z,15.81
2022-09-09T01:57:01.981Z,15.87
2022-09-09T02:00:05.157Z,15.79
2022-09-09T02:03:15.781Z,15.73
2022-09-09T02:06:22.413Z,15.77
2022-09-09T02:09:08.872Z,15.77
2022-09-09T02:11:55.604Z,15.78
2022-09-09T02:14:45.175Z,15.79
2022-09-09T02:17:31.429Z,15.74
2022-09-09T02:20:25.352Z,15.71
2022-09-09T02:23:15.757Z,15.72
2022-09-09T02:25:59.199Z,15.68
2022-09-09T02:28:40.224Z,15.72
2022-09-09T02:31:31.709Z,15.67
2022-09-09T02:34:25.356Z,15.72
2022-09-09T02:37:03.664Z,15.64
2022-09-09T02:39:45.533Z,15.56
2022-09-09T02:42:30.577Z,15.52
2022-09-09T02:45:11.551Z,15.51
2022-09-09T02:48:01.256Z,15.45
2022-09-09T02:51:06.200Z,15.44
2022-09-09T02:54:18.812Z,15.39
2022-09-09T03:00:52.535Z,15.40
2022-09-09T03:03:34.293Z,15.34
2022-09-09T03:06:26.173Z,15.32
2022-09-09T03:09:17.620Z,15.33
2022-09-09T03:11:51.195Z,15.30
2022-09-09T03:14:39.253Z,15.25
2022-09-09T03:17:19.956Z,15.24
2022-09-09T03:20:03.377Z,15.22
2022-09-09T03:22:45.032Z,15.22
2022-09-09T03:25:29.808Z,15.20
2022-09-09T03:28:10.751Z,15.22
2022-09-09T03:30:54.536Z,15.15
2022-09-09T03:33:37.513Z,15.12
2022-09-09T03:36:19.728Z,15.09
2022-09-09T03:39:01.703Z,14.98
2022-09-09T03:41:40.351Z,15.02
2022-09-09T03:44:31.898Z,15.00
2022-09-09T03:47:24.930Z,15.03
2022-09-09T03:50:14.175Z,15.06
2022-09-09T03:53:04.447Z,15.08
2022-09-09T03:55:53.231Z,15.08
2022-09-09T03:58:47.377Z,15.08
2022-09-09T04:01:29.476Z,15.06
2022-09-09T04:04:10.764Z,14.96
2022-09-09T04:06:49.538Z,14.93
2022-09-09T04:09:30.404Z,15.00
2022-09-09T04:12:11.972Z,14.93
2022-09-09T04:14:53.480Z,14.93
2022-09-09T04:17:42.119Z,14.98
2022-09-09T04:20:20.487Z,15.00
2022-09-09T04:23:04.671Z,15.01
2022-09-09T04:25:47.975Z,15.01
2022-09-09T04:28:30.026Z,15.00
2022-09-09T04:31:24.658Z,14.96
2022-09-09T04:34:11.587Z,14.95
2022-09-09T04:36:56.451Z,14.91
2022-09-09T04:39:42.295Z,14.89
2022-09-09T04:42:23.357Z,14.87
2022-09-09T04:45:13.879Z,14.76
2022-09-09T04:47:55.364Z,14.74
2022-09-09T04:50:39.679Z,14.77
2022-09-09T04:53:29.952Z,14.81
2022-09-09T04:56:19.447Z,14.81
2022-09-09T04:59:08.170Z,14.83
2022-09-09T05:02:04.324Z,14.90
2022-09-09T05:04:47.634Z,15.04
2022-09-09T05:07:41.329Z,15.06
2022-09-09T05:10:15.940Z,15.19
2022-09-09T05:13:07.582Z,15.18
2022-09-09T05:15:54.687Z,15.22
2022-09-09T05:18:30.979Z,15.37
2022-09-09T05:21:21.354Z,15.37
2022-09-09T05:24:02.585Z,15.49
2022-09-09T05:26:54.232Z,15.56
2022-09-09T05:29:34.559Z,15.68
2022-09-09T05:32:15.620Z,15.74
2022-09-09T05:35:00.471Z,15.68
2022-09-09T05:37:44.006Z,15.82
2022-09-09T05:40:27.978Z,15.87
2022-09-09T05:43:09.030Z,16.01
2022-09-09T05:45:48.716Z,16.03
2022-09-09T05:48:47.364Z,16.17
2022-09-09T05:51:25.261Z,16.30
2022-09-09T05:54:11.693Z,16.43
2022-09-09T05:56:52.421Z,16.60
2022-09-09T05:59:30.639Z,16.63
2022-09-09T06:02:06.777Z,16.80
2022-09-09T06:04:47.544Z,16.98
2022-09-09T06:07:37.010Z,17.14
2022-09-09T06:10:07.418Z,17.33
2022-09-09T06:12:45.417Z,17.46
2022-09-09T06:15:24.540Z,17.67
2022-09-09T06:18:02.443Z,17.83
2022-09-09T06:23:32.327Z,18.18
2022-09-09T06:26:23.835Z,18.28
2022-09-09T06:29:04.661Z,18.27
2022-09-09T06:31:38.383Z,18.32
2022-09-09T06:34:26.543Z,18.45
2022-09-09T06:37:09.544Z,18.53
2022-09-09T06:39:55.765Z,18.66
2022-09-09T06:42:46.723Z,18.96
2022-09-09T06:45:39.170Z,19.23
2022-09-09T06:48:15.249Z,19.28
2022-09-09T06:50:53.446Z,19.29
2022-09-09T06:53:32.259Z,19.32
2022-09-09T06:56:21.441Z,19.51
2022-09-09T06:59:05.190Z,19.58
2022-09-09T07:01:42.458Z,19.52
2022-09-09T07:04:20.165Z,19.59
2022-09-09T07:07:09.685Z,19.73
2022-09-09T07:09:49.550Z,19.67
2022-09-09T07:12:28.328Z,19.77
2022-09-09T07:15:06.160Z,19.80
2022-09-09T07:17:41.748Z,19.56
2022-09-09T07:20:17.194Z,19.60
2022-09-09T07:22:55.711Z,19.51
2022-09-09T07:25:31.246Z,19.47
2022-09-09T07:28:04.495Z,19.14
2022-09-09T07:30:40.258Z,19.09
2022-09-09T07:33:13.429Z,19.44
2022-09-09T07:35:52.340Z,19.92
2022-09-09T07:38:29.629Z,20.21
2022-09-09T07:41:14.645Z,20.20
2022-09-09T07:43:53.230Z,20.12
2022-09-09T07:46:31.916Z,20.31
2022-09-09T07:49:08.238Z,20.53
2022-09-09T07:51:45.423Z,20.67
2022-09-09T07:54:24.857Z,20.85
2022-09-09T07:57:04.986Z,20.85
2022-09-09T07:59:39.586Z,20.85
2022-09-09T08:02:17.781Z,21.22
2022-09-09T08:04:50.375Z,21.26
2022-09-09T08:07:32.198Z,21.35
2022-09-09T08:10:05.209Z,21.46
2022-09-09T08:13:01.511Z,21.52
2022-09-09T08:15:43.301Z,21.67
2022-09-09T08:18:15.848Z,21.85
2022-09-09T08:20:50.021Z,21.98
2022-09-09T08:23:33.964Z,22.05
2022-09-09T08:26:36.417Z,22.06
2022-09-09T08:29:11.284Z,22.31
2022-09-09T08:31:49.293Z,22.43
2022-09-09T08:34:26.621Z,22.49
2022-09-09T08:36:58.627Z,22.33
2022-09-09T08:39:43.045Z,22.61
2022-09-09T08:42:55.802Z,22.50
2022-09-09T08:45:38.696Z,22.54
2022-09-09T08:48:42.870Z,22.72
2022-09-09T08:51:14.945Z,22.51
2022-09-09T08:53:50.487Z,22.56
2022-09-09T08:56:25.519Z,22.81
2022-09-09T08:59:09.836Z,23.10
2022-09-09T09:02:04.590Z,23.07
2022-09-09T09:05:21.694Z,22.80
2022-09-09T09:08:12.988Z,22.98
2022-09-09T09:10:55.352Z,23.17
2022-09-09T09:13:43.979Z,23.24
2022-09-09T09:16:28.712Z,23.10
2022-09-09T09:19:04.784Z,23.29
2022-09-09T09:22:04.716Z,23.50
2022-09-09T09:24:51.896Z,23.78
2022-09-09T09:27:40.653Z,23.67
2022-09-09T09:30:29.988Z,24.04
2022-09-09T09:33:55.681Z,24.15
2022-09-09T09:36:54.596Z,24.10
2022-09-09T09:42:35.985Z,24.02
2022-09-09T09:45:46.777Z,24.20
2022-09-09T09:48:27.943Z,24.48
2022-09-09T09:51:21.006Z,24.51
2022-09-09T09:53:54.957Z,24.28
2022-09-09T09:56:33.630Z,24.40
2022-09-09T09:59:13.303Z,24.45
2022-09-09T10:02:28.361Z,24.58
2022-09-09T10:05:15.514Z,24.53
2022-09-09T10:08:13.536Z,24.46
2022-09-09T10:11:20.676Z,24.63
2022-09-09T10:13:59.750Z,24.67
2022-09-09T10:17:04.101Z,24.97
2022-09-09T10:19:54.870Z,25.01
2022-09-09T10:22:37.654Z,24.94
2022-09-09T10:25:46.814Z,25.05
2022-09-09T10:28:33.153Z,24.95
2022-09-09T10:31:32.020Z,24.66
2022-09-09T10:34:41.528Z,24.59
2022-09-09T10:37:27.485Z,24.69
2022-09-09T10:40:22.004Z,24.74
2022-09-09T10:42:49.362Z,24.68
2022-09-09T10:45:34.887Z,24.60
2022-09-09T10:48:24.893Z,24.47
2022-09-09T10:51:32.447Z,24.58
2022-09-09T10:54:44.610Z,24.96
2022-09-09T10:57:31.997Z,25.34
2022-09-09T11:00:20.732Z,25.50
2022-09-09T11:02:59.485Z,25.26
2022-09-09T11:05:46.641Z,25.48
2022-09-09T11:08:32.884Z,25.64
2022-09-09T11:11:19.063Z,25.52
2022-09-09T11:14:21.493Z,25.51
2022-09-09T11:17:24.640Z,25.50
2022-09-09T11:19:59.662Z,25.74
2022-09-09T11:22:33.467Z,25.81
2022-09-09T11:25:11.885Z,25.74
2022-09-09T11:28:02.753Z,25.78
2022-09-09T11:30:56.224Z,25.89
2022-09-09T11:33:45.728Z,26.19
2022-09-09T11:36:36.579Z,26.12
2022-09-09T11:39:42.011Z,25.95
2022-09-09T11:42:19.475Z,25.92
2022-09-09T11:44:56.130Z,25.77
2022-09-09T11:47:35.467Z,25.68
2022-09-09T11:50:35.420Z,25.86
2022-09-09T11:53:24.066Z,25.99
2022-09-09T11:56:14.716Z,26.22
2022-09-09T11:59:06.554Z,26.48
2022-09-09T12:02:03.160Z,26.17
2022-09-09T12:04:40.954Z,26.37
2022-09-09T12:07:26.670Z,26.55
2022-09-09T12:10:04.783Z,26.93
2022-09-09T12:12:41.734Z,26.77
2022-09-09T12:15:13.714Z,26.76
2022-09-09T12:18:00.128Z,27.01
2022-09-09T12:21:07.467Z,26.84
2022-09-09T12:23:49.793Z,26.88
2022-09-09T12:26:41.127Z,26.90
2022-09-09T12:29:30.561Z,26.44
2022-09-09T12:32:14.975Z,26.33
2022-09-09T12:34:57.624Z,26.62
2022-09-09T12:37:39.829Z,26.87
2022-09-09T12:40:40.295Z,26.90
2022-09-09T12:43:27.346Z,26.88
2022-09-09T12:46:36.667Z,27.06
2022-09-09T12:49:40.377Z,27.06
2022-09-09T12:52:36.355Z,26.99
2022-09-09T12:55:15.169Z,27.48
2022-09-09T12:57:45.395Z,27.94
2022-09-09T13:00:24.008Z,27.99
2022-09-09T13:03:20.636Z,27.90
2022-09-09T13:05:48.213Z,27.91
2022-09-09T13:08:31.196Z,28.17
2022-09-09T13:11:10.693Z,28.30
2022-09-09T13:13:56.895Z,28.58
2022-09-09T13:16:42.586Z,28.48
2022-09-09T13:19:23.506Z,28.34
2022-09-09T13:21:53.743Z,28.61
2022-09-09T13:24:35.588Z,28.73
2022-09-09T13:27:29.649Z,28.42
2022-09-09T13:29:58.989Z,28.31
2022-09-09T13:32:37.364Z,28.28
2022-09-09T13:35:25.922Z,28.29
2022-09-09T13:37:57.443Z,28.17
2022-09-09T13:40:33.024Z,28.00
2022-09-09T13:43:17.148Z,27.99
2022-09-09T13:46:02.623Z,28.07
2022-09-09T13:48:31.110Z,27.70
2022-09-09T13:51:06.406Z,27.65
2022-09-09T13:53:42.492Z,27.64
2022-09-09T13:56:26.548Z,27.31
2022-09-09T13:59:14.628Z,27.03
2022-09-09T14:01:43.469Z,26.86
2022-09-09T14:04:10.591Z,26.91
2022-09-09T14:06:46.535Z,27.25
2022-09-09T14:09:20.836Z,27.19
2022-09-09T14:11:52.769Z,27.10
2022-09-09T14:14:33.897Z,26.87
2022-09-09T14:17:17.584Z,26.88
2022-09-09T14:19:48.575Z,27.12
2022-09-09T14:22:24.807Z,27.48
2022-09-09T14:25:07.245Z,27.67
2022-09-09T14:27:45.639Z,27.66
2022-09-09T14:30:20.714Z,28.02
2022-09-09T14:32:49.264Z,27.98
2022-09-09T14:35:29.684Z,27.79
2022-09-09T14:38:07.740Z,27.49
2022-09-09T14:41:02.200Z,27.10
2022-09-09T14:43:37.789Z,27.24
2022-09-09T14:46:12.871Z,26.86
2022-09-09T14:48:46.420Z,26.81
2022-09-09T14:51:29.892Z,26.80
2022-09-09T14:54:06.192Z,26.66
2022-09-09T14:56:39.799Z,26.59
2022-09-09T14:59:23.018Z,26.54
2022-09-09T15:01:50.125Z,26.42
2022-09-09T15:04:29.496Z,26.39
2022-09-09T15:07:02.845Z,26.32
2022-09-09T15:09:33.116Z,26.31
2022-09-09T15:12:01.931Z,26.21
2022-09-09T15:14:28.954Z,26.09
2022-09-09T15:17:06.493Z,26.06
2022-09-09T15:19:34.628Z,26.02
2022-09-09T15:22:15.362Z,25.98
2022-09-09T15:24:48.387Z,25.93
2022-09-09T15:27:21.877Z,25.86
2022-09-09T15:29:51.480Z,25.75
2022-09-09T15:32:20.674Z,25.79
2022-09-09T15:35:06.992Z,25.71
2022-09-09T15:37:36.793Z,25.63
2022-09-09T15:40:12.870Z,25.55
2022-09-09T15:42:53.204Z,25.55
2022-09-09T15:45:29.544Z,25.48
2022-09-09T15:47:59.040Z,25.40
2022-09-09T15:50:25.989Z,25.32
2022-09-09T15:52:54.050Z,25.36
2022-09-09T15:55:25.457Z,25.43
2022-09-09T15:57:54.543Z,25.24
2022-09-09T16:00:28.393Z,25.34
2022-09-09T16:03:06.090Z,25.14
2022-09-09T16:05:43.297Z,24.93
2022-09-09T16:08:16.768Z,24.63
2022-09-09T16:10:47.049Z,24.35
2022-09-09T16:13:25.351Z,24.24
2022-09-09T16:19:02.617Z,23.85
2022-09-09T16:21:44.341Z,23.72
2022-09-09T16:24:19.392Z,23.61
2022-09-09T16:26:52.745Z,23.51
2022-09-09T16:29:28.523Z,23.37
2022-09-09T16:32:10.178Z,23.32
2022-09-09T16:34:41.693Z,23.19
2022-09-09T16:37:20.414Z,23.05
2022-09-09T16:39:47.435Z,22.93
2022-09-09T16:42:19.330Z,22.88
2022-09-09T16:44:54.842Z,22.76
2022-09-09T16:47:40.163Z,22.65
2022-09-09T16:50:21.567Z,22.51
2022-09-09T16:52:48.820Z,22.38
2022-09-09T16:55:21.630Z,22.30
2022-09-09T16:57:57.118Z,22.09
2022-09-09T17:00:34.713Z,22.00
2022-09-09T17:03:03.048Z,21.84
2022-09-09T17:05:36.545Z,21.78
2022-09-09T17:08:09.460Z,21.71
2022-09-09T17:10:49.580Z,21.60
2022-09-09T17:13:27.928Z,21.50
2022-09-09T17:16:03.011Z,21.41
2022-09-09T17:18:32.756Z,21.29
2022-09-09T17:21:15.153Z,21.15
2022-09-09T17:23:49.538Z,21.03
2022-09-09T17:26:28.978Z,20.92
2022-09-09T17:29:10.312Z,20.82
2022-09-09T17:31:42.574Z,20.71
2022-09-09T17:34:13.371Z,20.59
2022-09-09T17:36:40.739Z,20.47
2022-09-09T17:39:19.221Z,20.38
2022-09-09T17:41:54.624Z,20.32
2022-09-09T17:44:39.431Z,20.22
2022-09-09T17:47:29.960Z,20.10
2022-09-09T17:50:08.402Z,19.91
2022-09-09T17:52:43.733Z,19.83
2022-09-09T17:55:19.344Z,19.71
2022-09-09T17:57:55.787Z,19.63
2022-09-09T18:00:25.454Z,19.57
2022-09-09T18:03:07.424Z,19.52
2022-09-09T18:05:42.800Z,19.28
2022-09-09T18:08:09.836Z,19.16
2022-09-09T18:10:54.100Z,19.20
2022-09-09T18:13:40.142Z,19.19
2022-09-09T18:16:18.821Z,19.08
2022-09-09T18:21:44.654Z,19.00
2022-09-09T18:24:17.789Z,18.97
2022-09-09T18:26:53.626Z,18.89
2022-09-09T18:29:31.350Z,18.73
2022-09-09T18:32:11.171Z,18.97
2022-09-09T18:34:47.037Z,19.32
2022-09-09T18:37:19.382Z,19.57
2022-09-09T18:39:46.305Z,19.75
2022-09-09T18:42:19.346Z,19.84
2022-09-09T18:44:54.850Z,19.96
2022-09-09T18:47:30.239Z,19.99
2022-09-09T18:50:02.577Z,20.07
2022-09-09T18:52:52.635Z,20.10
2022-09-09T18:55:19.556Z,20.10
2022-09-09T18:57:58.838Z,20.20
2022-09-09T19:00:29.212Z,20.17
2022-09-09T19:03:04.601Z,20.13
2022-09-09T19:05:42.554Z,20.12
2022-09-09T19:08:15.428Z,20.12
2022-09-09T19:10:42.388Z,20.15
2022-09-09T19:13:15.569Z,20.16
2022-09-09T19:15:57.510Z,20.15
2022-09-09T19:18:33.800Z,20.10
2022-09-09T19:21:23.182Z,20.13
2022-09-09T19:24:05.585Z,20.17
2022-09-09T19:26:42.501Z,20.25
2022-09-09T19:29:19.549Z,20.19
2022-09-09T19:34:59.906Z,20.20
2022-09-09T19:37:42.630Z,20.17
2022-09-09T19:40:17.977Z,20.13
2022-09-09T19:42:45.073Z,20.20
2022-09-09T19:45:22.710Z,20.14
2022-09-09T19:48:00.631Z,20.21
2022-09-09T19:50:39.707Z,20.19
2022-09-09T19:53:20.970Z,20.28
2022-09-09T19:55:56.703Z,20.25
2022-09-09T19:58:24.271Z,20.15
2022-09-09T20:01:11.443Z,20.15
2022-09-09T20:03:48.384Z,20.13
2022-09-09T20:06:17.473Z,20.10
2022-09-09T20:08:47.506Z,20.08
2022-09-09T20:11:25.745Z,20.06
2022-09-09T20:13:58.744Z,20.03
2022-09-09T20:16:45.737Z,20.07
2022-09-09T20:19:30.605Z,20.07
2022-09-09T20:22:03.078Z,20.02
2022-09-09T20:24:44.646Z,19.95
2022-09-09T20:27:13.176Z,19.94
2022-09-09T20:29:40.252Z,19.90
2022-09-09T20:32:13.349Z,19.90
2022-09-09T20:34:54.903Z,19.82
2022-09-09T20:37:24.782Z,19.83
2022-09-09T20:40:01.199Z,19.87
2022-09-09T20:42:35.197Z,19.89
2022-09-09T20:45:07.647Z,19.97
2022-09-09T20:47:44.283Z,19.83
2022-09-09T20:50:18.085Z,19.84
2022-09-09T20:52:53.338Z,19.82
2022-09-09T20:55:35.217Z,19.82
2022-09-09T20:58:08.246Z,19.83
2022-09-09T21:00:35.335Z,19.88
2022-09-09T21:03:09.381Z,19.82
2022-09-09T21:05:41.010Z,19.83
2022-09-09T21:08:16.077Z,19.79
2022-09-09T21:10:58.468Z,19.76
2022-09-09T21:13:35.763Z,19.72
2022-09-09T21:16:14.296Z,19.63
2022-09-09T21:18:48.578Z,19.53
2022-09-09T21:21:24.454Z,19.54
2022-09-09T21:24:05.157Z,19.55
2022-09-09T21:26:43.217Z,19.55
2022-09-09T21:29:18.373Z,19.41
2022-09-09T21:31:59.662Z,19.28
2022-09-09T21:34:46.279Z,19.24
2022-09-09T21:37:19.250Z,19.16
2022-09-09T21:40:00.537Z,19.18
2022-09-09T21:42:35.624Z,19.20
2022-09-09T21:45:10.486Z,19.13
2022-09-09T21:47:48.933Z,18.99
2022-09-09T21:50:28.668Z,19.03
2022-09-09T21:53:23.037Z,19.04
2022-09-09T21:56:00.494Z,18.98
2022-09-09T21:58:39.909Z,19.09
2022-09-09T22:01:18.584Z,19.11
2022-09-09T22:03:57.655Z,18.97
2022-09-09T22:06:30.766Z,18.93
2022-09-09T22:09:07.771Z,18.94
2022-09-09T22:11:46.499Z,18.90
2022-09-09T22:14:24.402Z,18.86
2022-09-09T22:17:03.503Z,18.87
2022-09-09T22:19:45.778Z,18.83
2022-09-09T22:22:21.493Z,18.80
2022-09-09T22:24:56.946Z,18.80
2022-09-09T22:27:26.962Z,18.81
2022-09-09T22:30:02.241Z,18.92
2022-09-09T22:32:40.455Z,18.99
2022-09-09T22:35:23.543Z,18.94
2022-09-09T22:38:02.268Z,18.81
2022-09-09T22:40:42.490Z,18.78
2022-09-09T22:43:19.534Z,18.73
2022-09-09T22:45:54.373Z,18.66
2022-09-09T22:48:29.809Z,18.61
2022-09-09T22:51:14.665Z,18.56
2022-09-09T22:54:00.277Z,18.57
2022-09-09T22:56:35.809Z,18.56
2022-09-09T22:59:14.033Z,18.47
2022-09-09T23:01:54.168Z,18.41
2022-09-09T23:04:39.393Z,18.42
2022-09-09T23:07:15.151Z,18.48
2022-09-09T23:09:53.741Z,18.51
2022-09-09T23:12:30.249Z,18.50
2022-09-09T23:15:10.310Z,18.44
2022-09-09T23:17:49.339Z,18.43
2022-09-09T23:20:29.043Z,18.42
2022-09-09T23:23:04.495Z,18.39
2022-09-09T23:25:44.215Z,18.36
2022-09-09T23:28:19.539Z,18.36
2022-09-09T23:30:57.233Z,18.34
2022-09-09T23:33:35.040Z,18.37
2022-09-09T23:36:16.697Z,18.36
2022-09-09T23:39:01.268Z,18.28
2022-09-09T23:41:37.153Z,18.21
2022-09-09T23:44:15.580Z,18.22
2022-09-09T23:47:02.880Z,18.25
2022-09-09T23:49:39.404Z,18.35
2022-09-09T23:52:09.479Z,18.30
2022-09-09T23:54:44.657Z,18.24
2022-09-09T23:57:27.881Z,18.21
